sensor_id;sensor_type;location;lat;lon;timestamp;pressure;altitude;pressure_sealevel;temperature;humidity
65756;BME280;52489;47.502;18.940;2022-09-09T00:00:38;97902.78;;;16.39;93.99
65756;BME280;52489;47.502;18.940;2022-09-09T00:06:11;97902.22;;;16.61;92.14
65756;BME280;52489;47.502;18.940;2022-09-09T00:07:48;97900.75;;;16.48;92.61
65756;BME280;52489;47.502;18.940;2022-09-09T00:09:09;97910.25;;;16.37;93.94
65756;BME280;52489;47.502;18.940;2022-09-09T00:10:33;97897.06;;;16.53;93.20
65756;BME280;52489;47.502;18.940;2022-09-09T00:11:43;97900.69;;;16.60;92.76
65756;BME280;52489;47.502;18.940;2022-09-09T00:13:22;97899.94;;;16.60;93.18
65756;BME280;52489;47.502;18.940;2022-09-09T00:15:59;97895.34;;;16.73;91.77
65756;BME280;52489;47.502;18.940;2022-09-09T00:17:12;97904.81;;;16.74;91.59
65756;BME280;52489;47.502;18.940;2022-09-09T00:19:51;97901.81;;;16.59;91.78
65756;BME280;52489;47.502;18.940;2022-09-09T00:21:06;97898.06;;;16.60;92.14
65756;BME280;52489;47.502;18.940;2022-09-09T00:23:30;97905.06;;;16.69;91.62
65756;BME280;52489;47.502;18.940;2022-09-09T00:24:44;97897.19;;;16.56;92.20
65756;BME280;52489;47.502;18.940;2022-09-09T00:27:01;97906.09;;;16.24;94.67
65756;BME280;52489;47.502;18.940;2022-09-09T00:28:28;97903.81;;;16.22;95.61
65756;BME280;52489;47.502;18.940;2022-09-09T00:29:47;97900.59;;;16.29;95.60
65756;BME280;52489;47.502;18.940;2022-09-09T00:31:00;97907.75;;;16.28;95.22
65756;BME280;52489;47.502;18.940;2022-09-09T00:32:16;97906.88;;;16.24;95.81
65756;BME280;52489;47.502;18.940;2022-09-09T00:33:24;97908.72;;;16.36;95.01
65756;BME280;52489;47.502;18.940;2022-09-09T00:34:28;97905.28;;;16.35;95.08
65756;BME280;52489;47.502;18.940;2022-09-09T00:35:38;97903.09;;;16.37;95.11
65756;BME280;52489;47.502;18.940;2022-09-09T00:36:42;97907.66;;;16.25;95.63
65756;BME280;52489;47.502;18.940;2022-09-09T00:37:48;97911.16;;;16.29;95.89
65756;BME280;52489;47.502;18.940;2022-09-09T00:38:56;97898.16;;;16.24;96.30
65756;BME280;52489;47.502;18.940;2022-09-09T00:40:16;97904.34;;;16.28;96.03
65756;BME280;52489;47.502;18.940;2022-09-09T00:41:31;97907.13;;;16.19;95.89
65756;BME280;52489;47.502;18.940;2022-09-09T00:42:44;97901.94;;;16.23;95.77
65756;BME280;52489;47.502;18.940;2022-09-09T00:44:03;97907.44;;;16.30;96.10
65756;BME280;52489;47.502;18.940;2022-09-09T00:46:56;97909.72;;;16.31;96.57
65756;BME280;52489;47.502;18.940;2022-09-09T00:48:10;97910.63;;;16.23;96.79
65756;BME280;52489;47.502;18.940;2022-09-09T00:49:36;97912.94;;;16.25;96.37
65756;BME280;52489;47.502;18.940;2022-09-09T00:50:53;97897.97;;;16.17;96.78
65756;BME280;52489;47.502;18.940;2022-09-09T00:56:12;97906.03;;;16.08;97.62
65756;BME280;52489;47.502;18.940;2022-09-09T00:57:32;97899.31;;;16.10;97.96
65756;BME280;52489;47.502;18.940;2022-09-09T00:58:36;97906.66;;;16.17;97.73
65756;BME280;52489;47.502;18.940;2022-09-09T01:01:04;97904.03;;;16.17;98.15
65756;BME280;52489;47.502;18.940;2022-09-09T01:02:39;97915.09;;;16.35;96.95
65756;BME280;52489;47.502;18.940;2022-09-09T01:03:56;97921.59;;;16.37;96.57
65756;BME280;52489;47.502;18.940;2022-09-09T01:05:13;97913.28;;;16.51;95.08
65756;BME280;52489;47.502;18.940;2022-09-09T01:06:29;97917.16;;;16.54;94.38
65756;BME280;52489;47.502;18.940;2022-09-09T01:07:33;97929.75;;;16.45;94.48
65756;BME280;52489;47.502;18.940;2022-09-09T01:10:00;97937.91;;;16.40;94.56
65756;BME280;52489;47.502;18.940;2022-09-09T01:11:14;97931.72;;;16.35;94.65
65756;BME280;52489;47.502;18.940;2022-09-09T01:12:42;97929.19;;;16.39;94.55
65756;BME280;52489;47.502;18.940;2022-09-09T01:13:47;97925.97;;;16.46;94.12
65756;BME280;52489;47.502;18.940;2022-09-09T01:14:59;97928.19;;;16.44;93.72
65756;BME280;52489;47.502;18.940;2022-09-09T01:16:10;97927.09;;;16.45;93.67
65756;BME280;52489;47.502;18.940;2022-09-09T01:17:31;97931.84;;;16.39;93.67
65756;BME280;52489;47.502;18.940;2022-09-09T01:18:43;97928.19;;;16.44;93.42
65756;BME280;52489;47.502;18.940;2022-09-09T01:20:31;97930.59;;;16.49;93.11
65756;BME280;52489;47.502;18.940;2022-09-09T01:24:17;97937.69;;;16.45;93.29
65756;BME280;52489;47.502;18.940;2022-09-09T01:26:38;97935.94;;;16.36;93.71
65756;BME280;52489;47.502;18.940;2022-09-09T01:27:43;97943.50;;;16.38;93.86
65756;BME280;52489;47.502;18.940;2022-09-09T01:28:51;97939.38;;;16.25;94.70
65756;BME280;52489;47.502;18.940;2022-09-09T01:29:55;97937.81;;;16.24;94.84
65756;BME280;52489;47.502;18.940;2022-09-09T01:30:58;97935.97;;;16.24;94.91
65756;BME280;52489;47.502;18.940;2022-09-09T01:32:37;97940.81;;;16.22;95.03
65756;BME280;52489;47.502;18.940;2022-09-09T01:33:26;97938.34;;;16.29;94.76
65756;BME280;52489;47.502;18.940;2022-09-09T01:34:32;97938.47;;;16.33;94.57
65756;BME280;52489;47.502;18.940;2022-09-09T01:35:50;97934.41;;;16.23;94.82
65756;BME280;52489;47.502;18.940;2022-09-09T01:36:59;97937.25;;;16.30;94.60
65756;BME280;52489;47.502;18.940;2022-09-09T01:38:05;97937.38;;;16.34;94.71
65756;BME280;52489;47.502;18.940;2022-09-09T01:39:08;97936.69;;;16.37;94.10
65756;BME280;52489;47.502;18.940;2022-09-09T01:40:11;97934.84;;;16.25;94.49
65756;BME280;52489;47.502;18.940;2022-09-09T01:41:14;97937.81;;;16.24;94.32
65756;BME280;52489;47.502;18.940;2022-09-09T01:42:17;97942.69;;;16.22;94.62
65756;BME280;52489;47.502;18.940;2022-09-09T01:43:25;97935.37;;;16.31;94.26
65756;BME280;52489;47.502;18.940;2022-09-09T01:44:30;97936.25;;;16.35;93.66
65756;BME280;52489;47.502;18.940;2022-09-09T01:45:33;97933.38;;;16.40;93.44
65756;BME280;52489;47.502;18.940;2022-09-09T01:46:37;97938.97;;;16.38;93.12
65756;BME280;52489;47.502;18.940;2022-09-09T01:47:40;97937.19;;;16.27;93.87
65756;BME280;52489;47.502;18.940;2022-09-09T01:48:44;97940.47;;;16.11;94.83
65756;BME280;52489;47.502;18.940;2022-09-09T01:49:48;97946.97;;;16.14;95.03
65756;BME280;52489;47.502;18.940;2022-09-09T01:50:51;97946.34;;;16.05;95.29
65756;BME280;52489;47.502;18.940;2022-09-09T01:51:55;97948.44;;;15.99;96.06
65756;BME280;52489;47.502;18.940;2022-09-09T01:53:00;97952.47;;;16.09;96.04
65756;BME280;52489;47.502;18.940;2022-09-09T01:54:04;97953.59;;;16.08;95.82
65756;BME280;52489;47.502;18.940;2022-09-09T01:55:08;97961.31;;;16.01;96.56
65756;BME280;52489;47.502;18.940;2022-09-09T01:59:07;97956.34;;;16.11;95.50
65756;BME280;52489;47.502;18.940;2022-09-09T02:00:14;97954.91;;;16.14;95.24
65756;BME280;52489;47.502;18.940;2022-09-09T02:03:03;97963.72;;;16.06;95.76
65756;BME280;52489;47.502;18.940;2022-09-09T02:04:22;97952.19;;;15.98;95.80
65756;BME280;52489;47.502;18.940;2022-09-09T02:06:38;97951.19;;;16.03;95.71
65756;BME280;52489;47.502;18.940;2022-09-09T02:07:49;97950.31;;;15.86;96.53
65756;BME280;52489;47.502;18.940;2022-09-09T02:08:56;97956.56;;;15.94;96.56
65756;BME280;52489;47.502;18.940;2022-09-09T02:10:24;97960.88;;;15.99;96.18
65756;BME280;52489;47.502;18.940;2022-09-09T02:11:32;97954.94;;;16.02;95.82
65756;BME280;52489;47.502;18.940;2022-09-09T02:12:35;97951.28;;;15.94;95.86
65756;BME280;52489;47.502;18.940;2022-09-09T02:13:43;97953.06;;;15.78;96.97
65756;BME280;52489;47.502;18.940;2022-09-09T02:14:55;97943.50;;;15.85;96.20
65756;BME280;52489;47.502;18.940;2022-09-09T02:17:25;97942.41;;;15.86;96.10
65756;BME280;52489;47.502;18.940;2022-09-09T02:18:37;97943.28;;;15.78;96.95
65756;BME280;52489;47.502;18.940;2022-09-09T02:19:49;97946.94;;;15.74;97.58
65756;BME280;52489;47.502;18.940;2022-09-09T02:20:56;97944.50;;;15.68;98.30
65756;BME280;52489;47.502;18.940;2022-09-09T02:22:01;97937.56;;;15.76;97.63
65756;BME280;52489;47.502;18.940;2022-09-09T02:23:05;97943.16;;;15.87;96.47
65756;BME280;52489;47.502;18.940;2022-09-09T02:24:13;97943.25;;;15.90;96.13
65756;BME280;52489;47.502;18.940;2022-09-09T02:25:21;97943.06;;;15.83;96.33
65756;BME280;52489;47.502;18.940;2022-09-09T02:26:25;97938.34;;;15.77;96.37
65756;BME280;52489;47.502;18.940;2022-09-09T02:27:29;97946.91;;;15.86;96.45
65756;BME280;52489;47.502;18.940;2022-09-09T02:28:36;97934.00;;;15.97;95.67
65756;BME280;52489;47.502;18.940;2022-09-09T02:29:42;97941.06;;;15.92;95.67
65756;BME280;52489;47.502;18.940;2022-09-09T02:30:48;97940.31;;;15.92;95.51
65756;BME280;52489;47.502;18.940;2022-09-09T02:32:00;97934.13;;;16.00;95.36
65756;BME280;52489;47.502;18.940;2022-09-09T02:33:07;97935.31;;;16.03;94.96
65756;BME280;52489;47.502;18.940;2022-09-09T02:34:13;97926.41;;;16.07;94.06
65756;BME280;52489;47.502;18.940;2022-09-09T02:35:21;97933.56;;;16.07;93.82
65756;BME280;52489;47.502;18.940;2022-09-09T02:36:30;97927.41;;;16.03;93.93
65756;BME280;52489;47.502;18.940;2022-09-09T02:37:38;97928.59;;;16.05;93.86
65756;BME280;52489;47.502;18.940;2022-09-09T02:38:45;97934.47;;;15.99;93.91
65756;BME280;52489;47.502;18.940;2022-09-09T02:39:53;97936.88;;;16.04;93.89
65756;BME280;52489;47.502;18.940;2022-09-09T02:40:56;97934.44;;;16.11;93.47
65756;BME280;52489;47.502;18.940;2022-09-09T02:41:59;97934.47;;;15.99;94.00
65756;BME280;52489;47.502;18.940;2022-09-09T02:43:02;97934.56;;;15.90;94.22
65756;BME280;52489;47.502;18.940;2022-09-09T02:44:13;97937.56;;;15.88;94.41
65756;BME280;52489;47.502;18.940;2022-09-09T02:45:19;97934.25;;;15.79;94.61
65756;BME280;52489;47.502;18.940;2022-09-09T02:46:32;97935.56;;;15.98;93.92
65756;BME280;52489;47.502;18.940;2022-09-09T02:47:38;97939.19;;;15.93;93.69
65756;BME280;52489;47.502;18.940;2022-09-09T02:48:59;97942.28;;;15.95;93.70
65756;BME280;52489;47.502;18.940;2022-09-09T02:51:18;97934.00;;;15.97;93.04
65756;BME280;52489;47.502;18.940;2022-09-09T02:54:27;97944.81;;;16.04;92.78
65756;BME280;52489;47.502;18.940;2022-09-09T02:55:43;97937.53;;;16.01;92.94
65756;BME280;52489;47.502;18.940;2022-09-09T02:56:53;97943.91;;;16.00;92.55
65756;BME280;52489;47.502;18.940;2022-09-09T02:57:59;97945.25;;;15.93;92.64
65756;BME280;52489;47.502;18.940;2022-09-09T02:59:04;97939.75;;;15.86;92.92
65756;BME280;52489;47.502;18.940;2022-09-09T03:00:08;97939.22;;;15.81;93.07
65756;BME280;52489;47.502;18.940;2022-09-09T03:01:12;97942.72;;;15.85;92.93
65756;BME280;52489;47.502;18.940;2022-09-09T03:02:16;97931.75;;;15.71;93.57
65756;BME280;52489;47.502;18.940;2022-09-09T03:03:19;97935.47;;;15.69;93.80
65756;BME280;52489;47.502;18.940;2022-09-09T03:04:23;97936.69;;;15.72;93.65
65756;BME280;52489;47.502;18.940;2022-09-09T03:05:27;97935.47;;;15.69;93.52
65756;BME280;52489;47.502;18.940;2022-09-09T03:06:36;97939.66;;;15.71;93.69
65756;BME280;52489;47.502;18.940;2022-09-09T03:07:39;97948.44;;;15.87;92.52
65756;BME280;52489;47.502;18.940;2022-09-09T03:08:42;97942.72;;;15.85;92.22
65756;BME280;52489;47.502;18.940;2022-09-09T03:09:51;97949.13;;;15.72;92.92
65756;BME280;52489;47.502;18.940;2022-09-09T03:10:58;97944.94;;;15.71;93.00
65756;BME280;52489;47.502;18.940;2022-09-09T03:12:03;97946.13;;;15.73;93.03
65756;BME280;52489;47.502;18.940;2022-09-09T03:13:07;97945.25;;;15.69;93.19
65756;BME280;52489;47.502;18.940;2022-09-09T03:14:10;97948.13;;;15.76;92.79
65756;BME280;52489;47.502;18.940;2022-09-09T03:15:14;97956.28;;;15.71;92.54
65756;BME280;52489;47.502;18.940;2022-09-09T03:16:17;97951.66;;;15.68;93.00
65756;BME280;52489;47.502;18.940;2022-09-09T03:17:20;97950.22;;;15.83;92.17
65756;BME280;52489;47.502;18.940;2022-09-09T03:18:23;97956.94;;;15.80;92.03
65756;BME280;52489;47.502;18.940;2022-09-09T03:19:26;97952.06;;;15.70;92.21
65756;BME280;52489;47.502;18.940;2022-09-09T03:20:30;97960.44;;;15.72;92.20
65756;BME280;52489;47.502;18.940;2022-09-09T03:21:33;97955.94;;;15.73;91.69
65756;BME280;52489;47.502;18.940;2022-09-09T03:22:36;97961.56;;;15.71;92.00
65756;BME280;52489;47.502;18.940;2022-09-09T03:23:39;97958.00;;;15.67;92.09
65756;BME280;52489;47.502;18.940;2022-09-09T03:24:41;97968.25;;;15.68;91.72
65756;BME280;52489;47.502;18.940;2022-09-09T03:25:48;97958.87;;;15.59;92.04
65756;BME280;52489;47.502;18.940;2022-09-09T03:26:52;97956.88;;;15.56;92.33
65756;BME280;52489;47.502;18.940;2022-09-09T03:27:55;97952.03;;;15.45;92.20
65756;BME280;52489;47.502;18.940;2022-09-09T03:29:00;97947.53;;;15.46;92.85
65756;BME280;52489;47.502;18.940;2022-09-09T03:30:03;97956.22;;;15.46;93.02
65756;BME280;52489;47.502;18.940;2022-09-09T03:31:07;97957.78;;;15.47;92.84
65756;BME280;52489;47.502;18.940;2022-09-09T03:32:13;97951.72;;;15.47;92.68
65756;BME280;52489;47.502;18.940;2022-09-09T03:33:18;97952.59;;;15.51;92.32
65756;BME280;52489;47.502;18.940;2022-09-09T03:34:21;97948.31;;;15.59;92.06
65756;BME280;52489;47.502;18.940;2022-09-09T03:35:24;97949.41;;;15.45;92.70
65756;BME280;52489;47.502;18.940;2022-09-09T03:36:27;97953.00;;;15.41;92.62
65756;BME280;52489;47.502;18.940;2022-09-09T03:37:30;97955.22;;;15.27;93.63
65756;BME280;52489;47.502;18.940;2022-09-09T03:38:34;97952.09;;;15.12;94.82
65756;BME280;52489;47.502;18.940;2022-09-09T03:39:37;97950.69;;;15.15;94.89
65756;BME280;52489;47.502;18.940;2022-09-09T03:40:48;97959.09;;;15.08;95.46
65756;BME280;52489;47.502;18.940;2022-09-09T03:41:51;97955.22;;;14.93;96.63
65756;BME280;52489;47.502;18.940;2022-09-09T03:42:54;97953.44;;;14.85;97.51
65756;BME280;52489;47.502;18.940;2022-09-09T03:43:57;97953.66;;;14.80;98.55
65756;BME280;52489;47.502;18.940;2022-09-09T03:45:00;97947.84;;;14.87;98.39
65756;BME280;52489;47.502;18.940;2022-09-09T03:46:03;97954.34;;;14.89;98.24
65756;BME280;52489;47.502;18.940;2022-09-09T03:47:06;97955.19;;;14.81;98.41
65756;BME280;52489;47.502;18.940;2022-09-09T03:48:09;97951.47;;;14.82;98.32
65756;BME280;52489;47.502;18.940;2022-09-09T03:49:14;97957.59;;;14.74;99.02
65756;BME280;52489;47.502;18.940;2022-09-09T03:50:17;97957.87;;;14.72;99.82
65756;BME280;52489;47.502;18.940;2022-09-09T03:51:21;97957.25;;;14.75;100.00
65756;BME280;52489;47.502;18.940;2022-09-09T03:52:24;97969.12;;;14.82;99.68
65756;BME280;52489;47.502;18.940;2022-09-09T03:53:29;97970.69;;;14.83;99.76
65756;BME280;52489;47.502;18.940;2022-09-09T03:54:32;97964.19;;;14.80;99.62
65756;BME280;52489;47.502;18.940;2022-09-09T03:55:35;97969.78;;;14.78;100.00
65756;BME280;52489;47.502;18.940;2022-09-09T03:56:38;97966.37;;;14.78;100.00
65756;BME280;52489;47.502;18.940;2022-09-09T03:57:42;97971.13;;;14.85;100.00
65756;BME280;52489;47.502;18.940;2022-09-09T03:58:45;97968.66;;;15.00;99.29
65756;BME280;52489;47.502;18.940;2022-09-09T03:59:47;97965.37;;;15.04;98.57
65756;BME280;52489;47.502;18.940;2022-09-09T04:02:27;97974.72;;;15.01;97.63
65756;BME280;52489;47.502;18.940;2022-09-09T04:03:30;97982.09;;;15.08;96.51
65756;BME280;52489;47.502;18.940;2022-09-09T04:04:33;97974.28;;;15.11;96.25
65756;BME280;52489;47.502;18.940;2022-09-09T04:05:39;97985.28;;;15.13;95.76
65756;BME280;52489;47.502;18.940;2022-09-09T04:06:44;97975.09;;;15.24;95.30
65756;BME280;52489;47.502;18.940;2022-09-09T04:07:47;97974.00;;;15.25;94.82
65756;BME280;52489;47.502;18.940;2022-09-09T04:08:52;97970.38;;;15.17;94.79
65756;BME280;52489;47.502;18.940;2022-09-09T04:09:55;97968.28;;;15.23;94.29
65756;BME280;52489;47.502;18.940;2022-09-09T04:10:58;97968.81;;;15.16;94.45
65756;BME280;52489;47.502;18.940;2022-09-09T04:12:01;97970.22;;;15.14;94.53
65756;BME280;52489;47.502;18.940;2022-09-09T04:13:04;97964.19;;;15.13;94.36
65756;BME280;52489;47.502;18.940;2022-09-09T04:14:07;97968.25;;;15.11;94.11
65756;BME280;52489;47.502;18.940;2022-09-09T04:15:11;97970.22;;;15.14;93.84
65756;BME280;52489;47.502;18.940;2022-09-09T04:16:14;97962.75;;;15.16;93.15
65756;BME280;52489;47.502;18.940;2022-09-09T04:17:17;97968.16;;;15.19;92.95
65756;BME280;52489;47.502;18.940;2022-09-09T04:18:20;97967.44;;;14.98;93.38
65756;BME280;52489;47.502;18.940;2022-09-09T04:19:23;97965.53;;;14.86;95.12
65756;BME280;52489;47.502;18.940;2022-09-09T04:20:26;97964.81;;;14.98;94.59
65756;BME280;52489;47.502;18.940;2022-09-09T04:21:29;97970.38;;;14.96;94.60
65756;BME280;52489;47.502;18.940;2022-09-09T04:22:31;97967.91;;;15.00;94.59
65756;BME280;52489;47.502;18.940;2022-09-09T04:23:34;97965.94;;;15.09;93.88
65756;BME280;52489;47.502;18.940;2022-09-09T04:24:38;97959.69;;;15.14;93.35
65756;BME280;52489;47.502;18.940;2022-09-09T04:25:48;97964.75;;;15.19;92.54
65756;BME280;52489;47.502;18.940;2022-09-09T04:26:52;97963.06;;;15.14;92.76
65756;BME280;52489;47.502;18.940;2022-09-09T04:27:58;97962.19;;;15.10;93.27
65756;BME280;52489;47.502;18.940;2022-09-09T04:29:01;97969.56;;;15.17;93.20
65756;BME280;52489;47.502;18.940;2022-09-09T04:30:05;97968.91;;;15.20;92.94
65756;BME280;52489;47.502;18.940;2022-09-09T04:31:20;97970.38;;;15.17;93.11
65756;BME280;52489;47.502;18.940;2022-09-09T04:32:28;97968.91;;;15.20;93.01
65756;BME280;52489;47.502;18.940;2022-09-09T04:33:31;97973.53;;;15.11;93.32
65756;BME280;52489;47.502;18.940;2022-09-09T04:34:39;97967.31;;;14.94;94.95
65756;BME280;52489;47.502;18.940;2022-09-09T04:35:45;97963.31;;;15.09;94.06
65756;BME280;52489;47.502;18.940;2022-09-09T04:36:49;97971.56;;;14.87;95.43
65756;BME280;52489;47.502;18.940;2022-09-09T04:37:54;97969.72;;;14.87;95.20
65756;BME280;52489;47.502;18.940;2022-09-09T04:38:57;97967.75;;;14.96;94.90
65756;BME280;52489;47.502;18.940;2022-09-09T04:40:01;97959.75;;;15.05;94.57
65756;BME280;52489;47.502;18.940;2022-09-09T04:41:05;97961.09;;;15.11;93.87
65756;BME280;52489;47.502;18.940;2022-09-09T04:42:09;97962.75;;;15.04;94.32
65756;BME280;52489;47.502;18.940;2022-09-09T04:43:13;97956.53;;;14.87;95.71
65756;BME280;52489;47.502;18.940;2022-09-09T04:44:16;97959.06;;;14.96;95.45
65756;BME280;52489;47.502;18.940;2022-09-09T04:45:19;97956.34;;;15.05;95.18
65756;BME280;52489;47.502;18.940;2022-09-09T04:46:23;97953.06;;;15.08;95.21
65756;BME280;52489;47.502;18.940;2022-09-09T04:47:26;97950.97;;;15.01;95.96
65756;BME280;52489;47.502;18.940;2022-09-09T04:48:31;97943.25;;;14.96;96.12
65756;BME280;52489;47.502;18.940;2022-09-09T04:49:34;97950.78;;;15.06;95.00
65756;BME280;52489;47.502;18.940;2022-09-09T04:50:38;97947.25;;;15.14;94.91
65756;BME280;52489;47.502;18.940;2022-09-09T04:51:41;97947.38;;;15.18;94.90
65756;BME280;52489;47.502;18.940;2022-09-09T04:52:45;97958.06;;;15.21;94.69
65756;BME280;52489;47.502;18.940;2022-09-09T04:53:48;97963.12;;;15.27;94.43
65756;BME280;52489;47.502;18.940;2022-09-09T04:54:53;97956.97;;;15.35;94.32
65756;BME280;52489;47.502;18.940;2022-09-09T04:56:08;97962.16;;;15.43;94.02
65756;BME280;52489;47.502;18.940;2022-09-09T04:57:12;97959.31;;;15.48;94.13
65756;BME280;52489;47.502;18.940;2022-09-09T04:58:23;97964.78;;;15.43;94.43
65756;BME280;52489;47.502;18.940;2022-09-09T04:59:26;97963.59;;;15.53;94.47
65756;BME280;52489;47.502;18.940;2022-09-09T05:00:29;97974.28;;;15.57;94.50
65756;BME280;52489;47.502;18.940;2022-09-09T05:01:31;97972.50;;;15.61;94.55
65756;BME280;52489;47.502;18.940;2022-09-09T05:02:37;97965.13;;;15.42;95.45
65756;BME280;52489;47.502;18.940;2022-09-09T05:03:41;97974.59;;;15.43;95.73
65756;BME280;52489;47.502;18.940;2022-09-09T05:04:44;97975.09;;;15.24;96.92
65756;BME280;52489;47.502;18.940;2022-09-09T05:05:47;97963.66;;;15.20;97.61
65756;BME280;52489;47.502;18.940;2022-09-09T05:06:50;97977.62;;;15.20;98.25
65756;BME280;52489;47.502;18.940;2022-09-09T05:07:53;97974.75;;;15.25;98.29
65756;BME280;52489;47.502;18.940;2022-09-09T05:08:56;97976.72;;;15.16;98.71
65756;BME280;52489;47.502;18.940;2022-09-09T05:10:00;97979.38;;;15.29;98.06
65756;BME280;52489;47.502;18.940;2022-09-09T05:12:20;97979.94;;;15.34;97.61
65756;BME280;52489;47.502;18.940;2022-09-09T05:13:23;97974.13;;;15.41;97.40
65756;BME280;52489;47.502;18.940;2022-09-09T05:14:27;97967.31;;;15.40;98.10
65756;BME280;52489;47.502;18.940;2022-09-09T05:15:30;97974.59;;;15.43;98.37
65756;BME280;52489;47.502;18.940;2022-09-09T05:16:33;97973.50;;;15.44;98.38
65756;BME280;52489;47.502;18.940;2022-09-09T05:17:36;97976.47;;;15.55;98.06
65756;BME280;52489;47.502;18.940;2022-09-09T05:18:40;97974.63;;;15.67;97.22
65756;BME280;52489;47.502;18.940;2022-09-09T05:19:43;97974.94;;;15.66;97.21
65756;BME280;52489;47.502;18.940;2022-09-09T05:20:46;97978.44;;;15.58;97.71
65756;BME280;52489;47.502;18.940;2022-09-09T05:21:49;97974.37;;;15.60;97.89
65756;BME280;52489;47.502;18.940;2022-09-09T05:22:53;97979.66;;;15.60;98.34
65756;BME280;52489;47.502;18.940;2022-09-09T05:23:56;97980.53;;;15.64;98.63
65756;BME280;52489;47.502;18.940;2022-09-09T05:25:00;97989.06;;;15.70;98.06
65756;BME280;52489;47.502;18.940;2022-09-09T05:26:05;97974.37;;;15.60;98.96
65756;BME280;52489;47.502;18.940;2022-09-09T05:27:09;97979.47;;;15.65;99.12
65756;BME280;52489;47.502;18.940;2022-09-09T05:28:14;97975.91;;;15.61;98.74
65756;BME280;52489;47.502;18.940;2022-09-09T05:29:17;97976.81;;;15.65;98.82
65756;BME280;52489;47.502;18.940;2022-09-09T05:30:21;97971.19;;;15.67;99.44
65756;BME280;52489;47.502;18.940;2022-09-09T05:31:25;97977.81;;;15.73;99.16
65756;BME280;52489;47.502;18.940;2022-09-09T05:32:30;97980.81;;;15.72;99.17
65756;BME280;52489;47.502;18.940;2022-09-09T05:33:37;97982.22;;;15.81;99.09
65756;BME280;52489;47.502;18.940;2022-09-09T05:34:40;97982.03;;;15.86;98.29
65756;BME280;52489;47.502;18.940;2022-09-09T05:35:43;97980.03;;;15.96;97.46
65756;BME280;52489;47.502;18.940;2022-09-09T05:36:46;97980.13;;;15.99;97.05
65756;BME280;52489;47.502;18.940;2022-09-09T05:37:50;97974.00;;;15.95;97.47
65756;BME280;52489;47.502;18.940;2022-09-09T05:38:56;97990.59;;;15.96;98.08
65756;BME280;52489;47.502;18.940;2022-09-09T05:39:59;97989.19;;;15.98;96.15
65756;BME280;52489;47.502;18.940;2022-09-09T05:41:05;97985.97;;;16.05;94.80
65756;BME280;52489;47.502;18.940;2022-09-09T05:42:08;97981.44;;;16.18;94.86
65756;BME280;52489;47.502;18.940;2022-09-09T05:43:10;97976.16;;;16.30;94.24
65756;BME280;52489;47.502;18.940;2022-09-09T05:44:13;97978.44;;;16.31;94.35
65756;BME280;52489;47.502;18.940;2022-09-09T05:45:16;97975.94;;;16.23;94.05
65756;BME280;52489;47.502;18.940;2022-09-09T05:46:21;97969.97;;;16.26;93.90
65756;BME280;52489;47.502;18.940;2022-09-09T05:47:25;97981.53;;;16.33;93.07
65756;BME280;52489;47.502;18.940;2022-09-09T05:48:34;97972.03;;;16.32;93.47
65756;BME280;52489;47.502;18.940;2022-09-09T05:49:37;97984.47;;;16.44;93.91
65756;BME280;52489;47.502;18.940;2022-09-09T05:50:40;97974.78;;;16.48;94.20
65756;BME280;52489;47.502;18.940;2022-09-09T05:51:43;97982.63;;;16.45;94.30
65756;BME280;52489;47.502;18.940;2022-09-09T05:52:46;97981.59;;;16.49;93.92
65756;BME280;52489;47.502;18.940;2022-09-09T05:53:51;97977.28;;;16.57;93.84
65756;BME280;52489;47.502;18.940;2022-09-09T05:54:54;97978.25;;;16.65;93.33
65756;BME280;52489;47.502;18.940;2022-09-09T05:56:02;97978.75;;;16.82;92.50
65756;BME280;52489;47.502;18.940;2022-09-09T05:57:06;97978.38;;;16.96;91.55
65756;BME280;52489;47.502;18.940;2022-09-09T05:58:08;97971.78;;;16.90;90.96
65756;BME280;52489;47.502;18.940;2022-09-09T05:59:12;97974.16;;;16.79;91.23
65756;BME280;52489;47.502;18.940;2022-09-09T06:00:15;97974.00;;;16.88;90.99
65756;BME280;52489;47.502;18.940;2022-09-09T06:01:21;97971.56;;;16.95;90.65
65756;BME280;52489;47.502;18.940;2022-09-09T06:02:24;97975.59;;;17.05;89.86
65756;BME280;52489;47.502;18.940;2022-09-09T06:03:27;97970.97;;;17.02;90.10
65756;BME280;52489;47.502;18.940;2022-09-09T06:04:30;97976.88;;;17.11;89.91
65756;BME280;52489;47.502;18.940;2022-09-09T06:05:33;97977.16;;;17.22;88.84
65756;BME280;52489;47.502;18.940;2022-09-09T06:06:37;97980.94;;;17.37;87.42
65756;BME280;52489;47.502;18.940;2022-09-09T06:07:45;97985.72;;;17.47;86.79
65756;BME280;52489;47.502;18.940;2022-09-09T06:08:51;97988.78;;;17.49;86.32
65756;BME280;52489;47.502;18.940;2022-09-09T06:09:54;97984.94;;;17.62;86.02
65756;BME280;52489;47.502;18.940;2022-09-09T06:11:05;97984.22;;;17.78;85.47
65756;BME280;52489;47.502;18.940;2022-09-09T06:12:09;97977.19;;;17.85;85.95
65756;BME280;52489;47.502;18.940;2022-09-09T06:13:11;97976.75;;;17.83;84.34
65756;BME280;52489;47.502;18.940;2022-09-09T06:14:18;97981.84;;;18.08;81.01
65756;BME280;52489;47.502;18.940;2022-09-09T06:15:21;97978.31;;;18.55;79.77
65756;BME280;52489;47.502;18.940;2022-09-09T06:16:26;97980.97;;;18.74;78.40
65756;BME280;52489;47.502;18.940;2022-09-09T06:17:29;97981.03;;;18.78;78.48
65756;BME280;52489;47.502;18.940;2022-09-09T06:18:32;97983.47;;;18.86;79.08
65756;BME280;52489;47.502;18.940;2022-09-09T06:19:38;97993.06;;;18.91;77.87
65756;BME280;52489;47.502;18.940;2022-09-09T06:20:41;97988.94;;;18.94;79.96
65756;BME280;52489;47.502;18.940;2022-09-09T06:21:44;97993.31;;;19.05;80.05
65756;BME280;52489;47.502;18.940;2022-09-09T06:22:46;97978.00;;;19.18;80.19
65756;BME280;52489;47.502;18.940;2022-09-09T06:23:51;97994.69;;;19.19;80.71